Nasa Shuttle, FL

4:49 PM EST on January 17, 2018 (GMT -0500)
Nasa Shuttle | | Change Station
Active Advisory: Wind Chill Advisory

Elev 10 ft 28.62 °N, 80.72 °W | Updated 51 minutes ago

Partly Cloudy
Partly Cloudy
70 °F
Feels Like 70 °F
N
14
Wind Variable Wind from NW

Today
High -- | Low -- °F
--% Chance of Precip.
Yesterday
High -- | Low -- °F
Precip. -- in
Pressure 30.16 in
Visibility 10.0 miles
Clouds Few 6500 ft
Dew Point 49 °F
Humidity 48%
Rainfall 0.01 in
Snow Depth Not available.
7:16 AM 5:49 PM
New Moon, 1% visible
METAR KTTS 172058Z AUTO 32012KT 10SM FEW065 21/10 A3014 RMK AO2 SLP211 T02110096 56015 $
Pressure 30.16 in
Visibility 10.0 miles
Clouds Few 6500 ft
Dew Point 49 °F
Humidity 48%
Rainfall 0.01 in
Snow Depth Not available.
7:16 AM 5:49 PM
New Moon, 1% visible
METAR KTTS 172058Z AUTO 32012KT 10SM FEW065 21/10 A3014 RMK AO2 SLP211 T02110096 56015 $

Get Your Daily Forecast Email!

Thanks for signing up!

Be on the lookout for a verification email in your inbox.

You'll start receiving severe weather alerts in your inbox..

×

10-Day Weather Forecast

Almanac

Astronomy

Jan. 17, 2018 Rise Set
Actual Time
Civil Twilight
Nautical Twilight
Astronomical Twilight
Moon
Length of Visible Light
Length of Day
Tomorrow will be .
, % of the Moon is Illuminated

Today's Extremes

State Highs State Lows

Community

WunderPhotos

Category 6

Welcome to Category 6. This is the collective home for Weather Underground's featured writeups by Dr. Jeff Masters (right), Bob Henson (left), Chris Burt, and other regular contributors.

Nearby

Air Quality

  Air Quality AQ Index Pollutant
Not available.

Snow Depth

Station Depth Elevation

Earthquake Activity

City Distance Mag. Time & Date
Minimum magnitude displayed is 2.5.

Coastal Water Temperatures

Place Temperature

Stations

Nearby Weather Stations

Station Location Temp. Windchill Dew Point Humidity Wind Precip. Elev Updated Type
                   

Watches & Warnings

Wind Chill Advisory
Issued: 3:31 AM EST Jan. 17, 2018 – National Weather Service

... Wind Chill Advisory in effect from 1 am to 10 am EST
Thursday...

* what... very cold wind chills are expected due to a combination
of cold temperatures and northwest winds remaining at or a
little above 10 mph. Expect wind chills to drop into the lower
30s around or shortly after midnight, and reach values in the
middle 20s to around 30 degrees by sunrise Thursday.

* Where... Brevard, Osceola, Indian River and Okeechobee counties.

* When... 1 am to 10 am Thursday.


Precautionary/preparedness actions...

A Wind Chill Advisory means that cold air and the wind will
combine to create low wind chills. Make sure you dress
appropriately for the cold weather, including a coat, a hat and
gloves.